• Join FlightAware (Why Join?)
  • Login
  • US Flag 
08:24AM EDT


 

Airport Tracker/Info


-or-


 

Live Flight TrackerFlight Track Log ✈ DAL268 ✈ 22-Aug-2013 ✈ KJFK - LLBG / TLV

Flight Track Log - Related Links

Times and Time Zones

All times are in EDT time to prevent confusion due to time zone crossing. See the DAL268 flight status page for this flight to view local times or setup timezone preferences in your user account.

Time Position Orientation Groundspeed Altitude Reporting Facility
EDT Latitude Longitude Course Direction KTS MPH feet Rate Location/Type
12:18AM 40.5990 -73.7880 270° West 100 115  Level FlightAware
12:18AM 40.6060 -73.8030 302° West 160 184 480 Level FlightAware
12:19AM 40.6160 -73.8250 301° West 183 211 400 1,200 Climbing FlightAware
12:19AM 40.6170 -73.8320 281° West 183 211 600 1,500 Climbing FlightAware
12:19AM 40.6100 -73.8550 248° West 196 226 1,100 1,440 Climbing FlightAware
12:20AM 40.5970 -73.8700 221° Southwest 208 239 1,600 1,140 Climbing FlightAware
12:20AM 40.5810 -73.8830 212° Southwest 234 269 1,800 720 Climbing FlightAware
12:20AM 40.5730 -73.8860 196° South 248 285 1,900 960 Climbing FlightAware
12:20AM 40.5680 -73.8860 180° South 256 295 2,000 960 Climbing FlightAware
12:20AM 40.5450 -73.8760 162° South 284 327 2,300 1,020 Climbing FlightAware
12:21AM 40.5370 -73.8660 136° Southeast 290 334 2,500 1,380 Climbing FlightAware
12:21AM 40.5300 -73.8530 125° Southeast 299 344 2,700 1,200 Climbing FlightAware
12:21AM 40.5260 -73.8320 104° East 306 352 2,900 1,200 Climbing FlightAware
12:21AM 40.5250 -73.8260 102° East 306 352 3,000 2,460 Climbing FlightAware
12:21AM 40.5290 -73.7880 82° East 308 354 3,900 2,580 Climbing FlightAware
12:21AM 40.5326 -73.7664 78° East 309 356 4,400 2,880 Climbing FlightAware ADS-B
12:22AM 40.5369 -73.7387 78° East 308 354 5,200 3,000 Climbing FlightAware ADS-B
12:22AM 40.5417 -73.7113 77° East 308 354 5,900 2,760 Climbing FlightAware ADS-B
12:22AM 40.5466 -73.6827 77° East 311 358 6,600 2,760 Climbing FlightAware ADS-B
12:22AM 40.5513 -73.6550 77° East 312 359 7,300 2,460 Climbing FlightAware ADS-B
12:23AM 40.5561 -73.6268 77° East 313 360 7,900 2,400 Climbing FlightAware ADS-B
12:23AM 40.5604 -73.6002 78° East 316 364 8,500 2,400 Climbing FlightAware ADS-B
12:23AM 40.5616 -73.5881 83° East 318 366 8,700 1,980 Climbing FlightAware ADS-B
12:23AM 40.5617 -73.5821 89° East 319 367 8,800 1,680 Climbing FlightAware ADS-B
12:23AM 40.5615 -73.5739 92° East 321 369 8,900 2,220 Climbing FlightAware ADS-B
12:23AM 40.5604 -73.5662 101° East 322 371 9,100 2,220 Climbing FlightAware ADS-B
12:23AM 40.5558 -73.5449 106° East 324 373 9,500 2,100 Climbing FlightAware ADS-B
12:24AM 40.5516 -73.5296 110° East 326 375 9,800 1,680 Climbing FlightAware ADS-B
12:24AM 40.5320 -73.4718 114° Southeast 346 398 10,600 1,140 Climbing FlightAware ADS-B
12:25AM 40.5104 -73.4117 115° Southeast 377 434 11,000 1,080 Climbing FlightAware ADS-B
12:25AM 40.4854 -73.3463 117° Southeast 401 461 11,700 1,380 Climbing FlightAware ADS-B
12:26AM 40.4590 -73.2760 116° Southeast 417 480 12,500 1,800 Climbing FlightAware ADS-B
12:26AM 40.4327 -73.2064 116° Southeast 426 490 13,600 2,040 Climbing FlightAware ADS-B
12:27AM 40.4053 -73.1323 116° Southeast 433 498 14,600 1,920 Climbing FlightAware ADS-B
12:27AM 40.3814 -73.0681 116° Southeast 442 509 15,500 1,860 Climbing FlightAware ADS-B
12:27AM 40.3710 -73.0417 117° Southeast 442 509 15,800 1,560 Climbing FlightAware ADS-B
12:27AM 40.3654 -73.0234 112° Southeast 446 513 16,000 1,380 Climbing FlightAware ADS-B
12:28AM 40.3614 -72.9996 102° East 450 518 16,200 1,560 Climbing FlightAware ADS-B
12:28AM 40.3616 -72.9527 90° East 454 522 16,700 1,620 Climbing FlightAware ADS-B
12:28AM 40.3667 -72.9202 78° East 456 525 17,000 1,860 Climbing FlightAware ADS-B
12:29AM 40.3862 -72.8362 73° East 457 526 18,100 1,860 Climbing FlightAware ADS-B
12:29AM 40.4080 -72.7450 73° East 464 534 19,100 1,680 Climbing FlightAware
12:29AM 40.4154 -72.7115 74° East 467 537 19,400 1,500 Climbing FlightAware ADS-B
12:30AM 40.4348 -72.6252 74° East 475 547 20,200 1,440 Climbing FlightAware ADS-B
12:30AM 40.4532 -72.5408 74° East 482 555 20,900 1,320 Climbing FlightAware ADS-B
12:31AM 40.4721 -72.4541 74° East 488 562 21,600 1,320 Climbing FlightAware ADS-B
12:31AM 40.4914 -72.3649 74° East 495 570 22,300 1,320 Climbing FlightAware ADS-B
12:32AM 40.5170 -72.2490 74° East 503 579 23,200 1,200 Climbing FlightAware
12:32AM 40.5230 -72.2195 75° East 499 574 23,300 1,080 Climbing FlightAware ADS-B
12:33AM 40.5750 -72.0480 68° East 517 595 24,500 1,140 Climbing FlightAware
12:34AM 40.6300 -71.9440 55° Northeast 522 601 25,300 1,200 Climbing FlightAware
12:35AM 40.6800 -71.8510 55° Northeast 526 605 26,000 1,200 Climbing FlightAware
12:35AM 40.7350 -71.7510 54° Northeast 530 610 26,800 1,140 Climbing FlightAware
12:36AM 40.7700 -71.6860 55° Northeast 531 611 27,200 1,020 Climbing FlightAware ADS-B
12:36AM 40.8194 -71.5945 54° Northeast 538 619 27,800 1,140 Climbing FlightAware ADS-B
12:37AM 40.8960 -71.4530 54° Northeast 536 617 28,900 780 Climbing FlightAware
12:38AM 40.9370 -71.3780 54° Northeast 535 616 29,000 1,260 Climbing FlightAware
12:38AM 40.9920 -71.2730 55° Northeast 531 611 30,400 1,560 Climbing FlightAware
12:39AM 41.0480 -71.1680 55° Northeast 531 611 31,000 540 Climbing FlightAware
12:39AM 41.1000 -71.0690 55° Northeast 531 611 31,100 60 Climbing FlightAware
12:40AM 41.1480 -70.9790 55° Northeast 531 611 31,100  Level FlightAware
12:41AM 41.2080 -70.8650 55° Northeast 532 612 31,100  Level FlightAware
12:41AM 41.2680 -70.7510 55° Northeast 532 612 31,100  Level FlightAware
12:42AM 41.3150 -70.6620 55° Northeast 532 612 31,100  Level FlightAware
12:43AM 41.3590 -70.5780 55° Northeast 532 612 31,100  Level FlightAware
12:43AM 41.4020 -70.4960 55° Northeast 532 612 31,100  Level FlightAware
12:44AM 41.4760 -70.3510 56° Northeast 529 609 31,100  Level FlightAware
12:45AM 41.5180 -70.2690 56° Northeast 529 609 31,100  Level FlightAware
12:46AM 41.6350 -70.0430 55° Northeast 531 611 31,100  Level FlightAware
12:47AM 41.7060 -69.9040 56° Northeast 530 610 31,100  Level FlightAware
12:47AM 41.7640 -69.7900 56° Northeast 531 611 31,100  Level FlightAware
12:48AM 41.8100 -69.6990 56° Northeast 531 611 31,100  Level FlightAware
12:49AM 41.8720 -69.5780 55° Northeast 532 612 31,100  Level FlightAware
12:49AM 41.9190 -69.4840 56° Northeast 531 611 31,100  Level FlightAware
12:50AM 41.9660 -69.3910 56° Northeast 532 612 31,100  Level FlightAware
12:50AM 42.0260 -69.2700 56° Northeast 533 613 31,100  Level FlightAware
12:51AM 42.0650 -69.1910 56° Northeast 533 613 31,100  Level FlightAware
12:52AM 42.1150 -69.0910 56° Northeast 534 615 31,100  Level FlightAware
12:52AM 42.1700 -68.9800 56° Northeast 535 616 31,100  Level FlightAware
12:53AM 42.2180 -68.8830 56° Northeast 536 617 31,100  Level FlightAware
12:53AM 42.2660 -68.7840 57° Northeast 536 617 31,100  Level FlightAware
12:54AM 42.3470 -68.6200 56° Northeast 537 618 31,100  Level FlightAware
12:55AM 42.3970 -68.5150 57° Northeast 537 618 31,100  Level FlightAware
12:56AM 42.4560 -68.3950 56° Northeast 539 620 31,100  Level FlightAware
12:56AM 42.4980 -68.3080 57° Northeast 539 620 31,100  Level FlightAware
12:57AM 42.5390 -68.2210 57° Northeast 539 620 31,100  Level FlightAware
12:58AM 42.5820 -68.1320 57° Northeast 539 620 31,100  Level FlightAware
12:58AM 42.6230 -68.0450 57° Northeast 539 620 31,100  Level FlightAware
12:59AM 42.6650 -67.9580 57° Northeast 539 620 31,100  Level FlightAware
12:59AM 42.7060 -67.8710 57° Northeast 539 620 31,100  Level FlightAware
01:00AM 42.7500 -67.7790 57° Northeast 539 620 31,100  Level FlightAware
01:01AM 42.7930 -67.6890 57° Northeast 539 620 31,100  Level FlightAware
01:01AM 42.8350 -67.6020 57° Northeast 539 620 31,100  Level FlightAware
01:02AM 42.8770 -67.5120 57° Northeast 539 620 31,100  Level FlightAware
01:02AM 42.9190 -67.4250 57° Northeast 539 620 31,100  Level FlightAware
01:03AM 43.0580 -67.1340 57° Northeast 544 626 31,100  Level FlightAware
01:04AM 43.1190 -67.0030 57° Northeast 544 626 31,100  Level FlightAware
01:04AM 43.1610 -66.9150 57° Northeast 544 626 31,100  Level FlightAware
01:05AM 43.2030 -66.8260 57° Northeast 544 626 31,100  Level FlightAware
01:06AM 43.2690 -66.6730 59° Northeast 546 628 31,100  Level FlightAware
01:06AM 43.3160 -66.5700 58° Northeast 546 628 31,100  Level FlightAware
01:07AM 43.3640 -66.4660 58° Northeast 547 629 31,100  Level FlightAware
01:08AM 43.4140 -66.3540 58° Northeast 546 628 31,100  Level FlightAware
01:08AM 43.4710 -66.2280 58° Northeast 545 627 31,100  Level FlightAware
01:09AM 43.5180 -66.1230 58° Northeast 540 621 31,100  Level FlightAware
01:09AM 43.5650 -66.0180 58° Northeast 540 621 31,100  Level FlightAware
01:10AM 43.6120 -65.9130 58° Northeast 540 621 31,100  Level FlightAware
01:10AM 43.6580 -65.8120 58° Northeast 538 619 31,100  Level FlightAware
01:11AM 43.7040 -65.7080 59° Northeast 536 617 31,100  Level FlightAware
01:12AM 43.7490 -65.6050 59° Northeast 535 616 31,100  Level FlightAware
01:12AM 43.7950 -65.5020 58° Northeast 536 617 31,100  Level FlightAware
01:13AM 43.8400 -65.3990 59° Northeast 537 618 31,100  Level FlightAware
01:13AM 43.8860 -65.2940 59° Northeast 537 618 31,100  Level FlightAware
01:14AM 43.9310 -65.1920 58° Northeast 536 617 31,100  Level FlightAware
01:15AM 43.9760 -65.0870 59° Northeast 535 616 31,100  Level FlightAware
01:15AM 44.0220 -64.9810 59° Northeast 538 619 31,100  Level FlightAware
01:16AM 44.0660 -64.8790 59° Northeast 537 618 31,100  Level FlightAware
01:16AM 44.1160 -64.7620 59° Northeast 536 617 31,100  Level FlightAware
01:17AM 44.1590 -64.6630 59° Northeast 534 615 31,100  Level FlightAware
01:18AM 44.2100 -64.5430 59° Northeast 534 615 31,100  Level FlightAware
01:18AM 44.2560 -64.4360 59° Northeast 534 615 31,100  Level FlightAware
01:19AM 44.3050 -64.3210 59° Northeast 534 615 31,100  Level FlightAware
01:19AM 44.3450 -64.2260 59° Northeast 534 615 31,100  Level FlightAware
01:20AM 44.3800 -64.1430 59° Northeast 535 616 31,100  Level FlightAware
01:21AM 44.4280 -64.0290 59° Northeast 536 617 31,100  Level FlightAware
01:21AM 44.4740 -63.9210 59° Northeast 536 617 31,100  Level FlightAware
01:22AM 44.5110 -63.8310 60° Northeast 537 618 31,100  Level FlightAware
01:22AM 44.5660 -63.7000 59° Northeast 537 618 31,100  Level FlightAware
01:23AM 44.6100 -63.5950 59° Northeast 535 616 31,100  Level FlightAware
01:24AM 44.6620 -63.4710 59° Northeast 536 617 31,100  Level FlightAware
01:24AM 44.7030 -63.3710 60° Northeast 535 616 31,100  Level FlightAware
01:25AM 44.7500 -63.2580 60° Northeast 534 615 31,100  Level FlightAware
01:25AM 44.7950 -63.1470 60° Northeast 533 613 31,100  Level FlightAware
01:26AM 44.8340 -63.0520 60° Northeast 533 613 31,100  Level FlightAware
01:27AM 44.8720 -62.9600 60° Northeast 533 613 31,100  Level FlightAware
01:27AM 44.9100 -62.8680 60° Northeast 533 613 31,100  Level FlightAware
01:28AM 44.9470 -62.7760 60° Northeast 533 613 31,100  Level FlightAware
01:29AM 44.9850 -62.6830 60° Northeast 533 613 31,100  Level FlightAware
01:29AM 45.0240 -62.5880 60° Northeast 533 613 31,100  Level FlightAware
01:30AM 45.0610 -62.4960 60° Northeast 533 613 31,100  Level FlightAware
01:30AM 45.0990 -62.4030 60° Northeast 533 613 31,100  Level FlightAware
01:31AM 45.1370 -62.3110 60° Northeast 533 613 31,100  Level FlightAware
01:32AM 45.1750 -62.2180 60° Northeast 533 613 31,100  Level FlightAware
01:32AM 45.2120 -62.1250 61° Northeast 533 613 31,100  Level FlightAware
01:33AM 45.2500 -62.0320 60° Northeast 533 613 31,100  Level FlightAware
01:33AM 45.2880 -61.9400 60° Northeast 533 613 31,100  Level FlightAware
01:34AM 45.3250 -61.8470 60° Northeast 533 613 31,100  Level FlightAware
01:35AM 45.3630 -61.7540 60° Northeast 533 613 31,100  Level FlightAware
01:35AM 45.4010 -61.6610 60° Northeast 533 613 31,100 840 Level FlightAware
01:37AM 45.6040 -61.0630 64° Northeast 518 596 33,100 780 Climbing FlightAware
01:38AM 45.6450 -60.9510 62° Northeast 519 597 33,100  Level FlightAware
01:38AM 45.6830 -60.8460 63° Northeast 519 597 33,100  Level FlightAware
01:39AM 45.7250 -60.7340 62° Northeast 520 598 33,100  Level FlightAware
01:39AM 45.7620 -60.6330 62° Northeast 520 598 33,100  Level FlightAware
01:40AM 45.8020 -60.5220 63° Northeast 521 600 33,100  Level FlightAware
01:40AM 45.8390 -60.4220 62° Northeast 521 600 33,100  Level FlightAware
01:41AM 45.8780 -60.3140 63° Northeast 521 600 33,100  Level FlightAware
01:42AM 45.9190 -60.2000 63° Northeast 521 600 33,100  Level FlightAware
01:42AM 45.9540 -60.1040 62° Northeast 520 598 33,100  Level FlightAware
01:43AM 45.9960 -59.9870 63° Northeast 520 598 33,100  Level FlightAware
01:43AM 46.0340 -59.8800 63° Northeast 519 597 33,100  Level FlightAware
01:44AM 46.0740 -59.7660 63° Northeast 520 598 33,100  Level FlightAware
01:44AM 46.1090 -59.6680 63° Northeast 521 600 33,100  Level FlightAware
01:45AM 46.1490 -59.5550 63° Northeast 521 600 33,100  Level FlightAware
01:46AM 46.1860 -59.4490 63° Northeast 523 602 33,100  Level FlightAware
01:46AM 46.2250 -59.3380 63° Northeast 525 604 33,100  Level FlightAware
01:47AM 46.2650 -59.2240 63° Northeast 527 606 33,100  Level FlightAware
01:47AM 46.3000 -59.1230 63° Northeast 529 609 33,100  Level FlightAware
01:48AM 46.3390 -59.0080 64° Northeast 530 610 33,100  Level FlightAware
01:49AM 46.3790 -58.8940 63° Northeast 532 612 33,100  Level FlightAware
01:49AM 46.4170 -58.7820 64° Northeast 533 613 33,100  Level FlightAware
01:50AM 46.4530 -58.6760 64° Northeast 533 613 33,100  Level FlightAware
01:50AM 46.4920 -58.5620 64° Northeast 533 613 33,100  Level FlightAware
01:51AM 46.5400 -58.4210 64° Northeast 534 615 33,100  Level FlightAware
01:52AM 46.5760 -58.3120 64° Northeast 535 616 33,100  Level FlightAware
01:52AM 46.6250 -58.1700 63° Northeast 535 616 33,100  Level FlightAware
01:53AM 46.6760 -58.0150 64° Northeast 534 615 33,100  Level FlightAware
01:54AM 46.7260 -57.8630 64° Northeast 533 613 33,100  Level FlightAware
01:55AM 46.7600 -57.7640 63° Northeast 533 613 33,100  Level FlightAware
01:55AM 46.8100 -57.6070 65° Northeast 532 612 33,100  Level FlightAware
01:56AM 46.8400 -57.5130 65° Northeast 532 612 33,100  Level FlightAware
01:56AM 46.8770 -57.3980 65° Northeast 533 613 33,100  Level FlightAware
01:57AM 46.9150 -57.2820 64° Northeast 532 612 33,100  Level FlightAware
01:58AM 46.9570 -57.1500 65° Northeast 533 613 33,100  Level FlightAware
01:58AM 47.0070 -56.9920 65° Northeast 534 615 33,100  Level FlightAware
01:59AM 47.0370 -56.8980 65° Northeast 535 616 33,100  Level FlightAware
02:00AM 47.0850 -56.7430 65° Northeast 536 617 33,100  Level FlightAware
02:00AM 47.1210 -56.6280 65° Northeast 537 618 33,100  Level FlightAware
02:01AM 47.1530 -56.5270 65° Northeast 538 619 33,100  Level FlightAware
02:01AM 47.1990 -56.3790 65° Northeast 539 620 33,100  Level FlightAware
02:02AM 47.2360 -56.2590 66° East 538 619 33,100  Level FlightAware
02:03AM 47.2810 -56.1120 66° East 538 619 33,100  Level FlightAware
02:03AM 47.3150 -56.0020 65° Northeast 538 619 33,100  Level FlightAware
02:04AM 47.3510 -55.8820 66° East 538 619 33,100  Level FlightAware
02:05AM 47.3900 -55.7550 66° East 538 619 33,100  Level FlightAware
02:05AM 47.4260 -55.6350 66° East 538 619 33,100  Level FlightAware
02:06AM 47.4560 -55.5350 66° East 538 619 33,100  Level FlightAware
02:06AM 47.4950 -55.4050 66° East 537 618 33,100  Level FlightAware
02:07AM 47.5300 -55.2870 66° East 537 618 33,100  Level FlightAware
02:08AM 47.5760 -55.1330 66° East 537 618 33,100  Level FlightAware
02:08AM 47.6060 -55.0330 66° East 537 618 33,100  Level FlightAware
02:09AM 47.6400 -54.9190 66° East 537 618 33,100  Level FlightAware
02:10AM 47.6700 -54.8180 66° East 537 618 33,100  Level FlightAware
02:10AM 47.7210 -54.6310 68° East 532 612 33,100  Level FlightAware
02:11AM 47.7560 -54.5100 67° East 533 613 33,100  Level FlightAware
02:11AM 47.7900 -54.3900 67° East 532 612 33,100  Level FlightAware
02:12AM 47.8250 -54.2660 67° East 532 612 33,100  Level FlightAware
02:13AM 47.8570 -54.1540 67° East 533 613 33,100  Level FlightAware
02:13AM 47.8910 -54.0320 67° East 535 616 33,100  Level FlightAware
02:14AM 47.9220 -53.9220 67° East 535 616 33,100  Level FlightAware
02:14AM 47.9530 -53.8070 68° East 535 616 33,100  Level FlightAware
02:15AM 47.9900 -53.6760 67° East 537 618 33,100  Level FlightAware
02:15AM 48.0210 -53.5630 68° East 538 619 33,100  Level FlightAware
02:16AM 48.0550 -53.4350 68° East 538 619 33,100  Level FlightAware
02:17AM 48.0890 -53.3110 68° East 540 621 33,100  Level FlightAware
02:17AM 48.1180 -53.2050 68° East 537 618 33,100  Level FlightAware
02:18AM 48.1500 -53.0840 68° East 536 617 33,100  Level FlightAware
02:18AM 48.1830 -52.9610 68° East 537 618 33,100 -180 Level FlightAware
02:19AM 48.1333 -53.6000 69° East 511 588 33,000  Descending ETMS Enhanced Traffic Management System
02:19AM 48.2150 -52.8410 68° East 538 619 33,100 120 Climbing FlightAware
02:19AM 48.3000 -52.7167 69° East 540 621 33,100  Level Moncton Center
02:20AM 48.2530 -52.6990 68° East 540 621 33,100  Level FlightAware
02:20AM 48.2800 -52.5970 68° East 541 623 33,100  Level FlightAware
02:20AM 48.3500 -52.4833 72° East 550 633 33,100  Level Moncton Center
02:21AM 48.3130 -52.4730 68° East 544 626 33,100  Level FlightAware
02:21AM 48.4000 -52.2833 69° East 550 633 33,100  Level Moncton Center
02:21AM 48.3450 -52.3520 68° East 543 625 33,100  Level FlightAware
02:22AM 48.3770 -52.2270 69° East 546 628 33,100  Level FlightAware
02:22AM 48.4667 -52.0667 65° Northeast 550 633 33,100  Level Moncton Center
02:22AM 48.4140 -52.0850 69° East 546 628 33,100  Level FlightAware
02:23AM 48.4410 -51.9780 69° East 547 629 33,100  Level FlightAware
02:23AM 48.5167 -51.8500 71° East 550 633 33,100  Level Moncton Center
02:24AM 48.4740 -51.8500 69° East 548 631 33,100  Level FlightAware
02:24AM 48.5667 -51.6333 71° East 550 633 33,100  Level Moncton Center
02:25AM 48.6333 -51.4167 65° Northeast 550 633 33,100  Level Moncton Center
02:26AM 48.6833 -51.2000 71° East 550 633 33,100  Level Moncton Center
02:27AM 48.7333 -50.9833 71° East 550 633 33,100  Level Moncton Center
02:28AM 48.7833 -50.7500 72° East 550 633 33,100  Level Moncton Center
02:29AM 48.8500 -50.5333 65° Northeast 560 644 33,100  Level Moncton Center
02:30AM 48.8833 -50.3167 77° East 550 633 33,100  Level Moncton Center
02:31AM 48.9667 -50.0500 64° Northeast 550 633 33,100  Level Gander Center
02:32AM 48.9833 -49.8167 86° East 550 633 33,100 -120 Level Gander Center
02:33AM 49.0000 -50.0000 86° East 536 617 33,000  Descending ETMS Enhanced Traffic Management System
02:33AM 49.0000 -49.5833 84° East 570 656 33,100 60 Climbing Gander Center
02:34AM 49.0000 -49.3500 90° East 550 633 33,100  Level Gander Center
02:35AM 49.0167 -49.1333 83° East 550 633 33,100  Level Gander Center
02:36AM 49.0333 -48.9000 84° East 540 621 33,100  Level Gander Center
02:37AM 49.0333 -48.6667 90° East 550 633 33,100  Level Gander Center
02:39AM 49.0414 -48.4194 87° East  Level FlightAware Approximate
02:39AM 49.0333 -48.2333 87° East 550 633 33,100  Level Gander Center
02:40AM 49.0667 -48.0000 78° East 540 621 33,100  Level Gander Center
02:41AM 49.0667 -47.7833 90° East 550 633 33,100  Level Gander Center
02:42AM 49.0667 -47.5500 90° East 550 633 33,100  Level Gander Center
02:43AM 49.1000 -47.3500 76° East 550 633 33,100  Level Gander Center
02:44AM 49.0833 -47.0833 95° East 560 644 33,100  Level Gander Center
02:45AM 49.0667 -46.8667 97° East 530 610 33,100 -60 Level Gander Center
02:47AM 49.0723 -46.5678 88° East  Level FlightAware Approximate
02:54AM 49.0888 -45.0172 88° East  Level FlightAware Approximate
02:55AM 49.0895 -44.7956 90° East  Level FlightAware Approximate
02:56AM 49.0897 -44.5741 90° East  Level FlightAware Approximate
02:57AM 49.0896 -44.3525 90° East  Level FlightAware Approximate
02:58AM 49.0890 -44.1309 90° East  Level FlightAware Approximate
02:59AM 49.0879 -43.9093 90° East  Level FlightAware Approximate
03:00AM 49.0865 -43.6878 90° East  Level FlightAware Approximate
03:01AM 49.0846 -43.4662 91° East  Level FlightAware Approximate
03:02AM 49.0823 -43.2447 91° East  Level FlightAware Approximate
03:03AM 49.0796 -43.0232 91° East  Level FlightAware Approximate
03:04AM 49.0765 -42.8018 91° East  Level FlightAware Approximate
03:05AM 49.0729 -42.5803 91° East  Level FlightAware Approximate
03:06AM 49.0689 -42.3589 91° East  Level FlightAware Approximate
03:07AM 49.0645 -42.1375 92° East  Level FlightAware Approximate
03:08AM 49.0596 -41.9162 92° East  Level FlightAware Approximate
03:09AM 49.0544 -41.6949 92° East  Level FlightAware Approximate
03:10AM 49.0487 -41.4737 92° East  Level FlightAware Approximate
03:11AM 49.0426 -41.2525 92° East  Level FlightAware Approximate
03:12AM 49.0361 -41.0314 92° East  Level FlightAware Approximate
03:13AM 49.0291 -40.8103 93° East  Level FlightAware Approximate
03:14AM 49.0217 -40.5893 93° East  Level FlightAware Approximate
03:15AM 49.0139 -40.3684 93° East  Level FlightAware Approximate
03:16AM 49.0057 -40.1475 93° East  Level FlightAware Approximate
03:17AM 49.0105 -39.9279 77° East  Level FlightAware Approximate
03:18AM 49.0417 -39.7118 78° East  Level FlightAware Approximate
03:19AM 49.0724 -39.4954 78° East  Level FlightAware Approximate
03:20AM 49.1028 -39.2787 78° East  Level FlightAware Approximate
03:21AM 49.1327 -39.0618 78° East  Level FlightAware Approximate
03:22AM 49.1623 -38.8446 78° East  Level FlightAware Approximate
03:23AM 49.1914 -38.6271 78° East  Level FlightAware Approximate
03:24AM 49.2201 -38.4094 78° East  Level FlightAware Approximate
03:25AM 49.2484 -38.1915 79° East  Level FlightAware Approximate
03:26AM 49.2763 -37.9733 79° East  Level FlightAware Approximate
03:27AM 49.3038 -37.7548 79° East  Level FlightAware Approximate
03:28AM 49.3309 -37.5361 79° East  Level FlightAware Approximate
03:29AM 49.3576 -37.3172 79° East  Level FlightAware Approximate
03:30AM 49.3838 -37.0980 79° East  Level FlightAware Approximate
03:31AM 49.4097 -36.8787 80° East  Level FlightAware Approximate
03:32AM 49.4351 -36.6590 80° East  Level FlightAware Approximate
03:33AM 49.4601 -36.4392 80° East  Level FlightAware Approximate
03:34AM 49.4847 -36.2191 80° East  Level FlightAware Approximate
03:35AM 49.5089 -35.9988 80° East  Level FlightAware Approximate
03:36AM 49.5326 -35.7783 80° East  Level FlightAware Approximate
03:37AM 49.5560 -35.5576 81° East  Level FlightAware Approximate
03:38AM 49.5789 -35.3367 81° East  Level FlightAware Approximate
03:39AM 49.6014 -35.1155 81° East  Level FlightAware Approximate
03:40AM 49.6234 -34.8942 81° East  Level FlightAware Approximate
03:41AM 49.6451 -34.6726 81° East  Level FlightAware Approximate
03:42AM 49.6663 -34.4509 82° East  Level FlightAware Approximate
03:43AM 49.6871 -34.2290 82° East  Level FlightAware Approximate
03:44AM 49.7075 -34.0069 82° East  Level FlightAware Approximate
03:45AM 49.7275 -33.7846 82° East  Level FlightAware Approximate
03:46AM 49.7470 -33.5621 82° East  Level FlightAware Approximate
03:47AM 49.7661 -33.3395 82° East  Level FlightAware Approximate
03:48AM 49.7848 -33.1166 83° East  Level FlightAware Approximate
03:49AM 49.8030 -32.8936 83° East  Level FlightAware Approximate
03:50AM 49.8208 -32.6705 83° East  Level FlightAware Approximate
03:51AM 49.8382 -32.4471 83° East  Level FlightAware Approximate
03:52AM 49.8552 -32.2236 83° East  Level FlightAware Approximate
03:53AM 49.8717 -32.0000 83° East  Level FlightAware Approximate
03:54AM 49.8878 -31.7762 84° East  Level FlightAware Approximate
03:55AM 49.9035 -31.5523 84° East  Level FlightAware Approximate
03:56AM 49.9187 -31.3282 84° East  Level FlightAware Approximate
03:57AM 49.9335 -31.1040 84° East  Level FlightAware Approximate
03:58AM 49.9479 -30.8796 84° East  Level FlightAware Approximate
03:59AM 49.9618 -30.6551 84° East  Level FlightAware Approximate
04:00AM 49.9753 -30.4305 85° East  Level FlightAware Approximate
04:01AM 50.0000 -30.0000 95° East 562 647 33,000  Level ETMS Enhanced Traffic Management System
04:01AM 49.9884 -30.2058 85° East  Level FlightAware Approximate
04:02AM 49.9989 -29.9809 95° East  Level FlightAware Approximate
04:03AM 49.9862 -29.7561 95° East  Level FlightAware Approximate
04:04AM 49.9731 -29.5313 95° East  Level FlightAware Approximate
04:05AM 49.9595 -29.3067 95° East  Level FlightAware Approximate
04:06AM 49.9455 -29.0823 95° East  Level FlightAware Approximate
04:07AM 49.8937 -28.3074 96° East 562 647 33,000  Level FlightAware Transoceanic
04:08AM 49.8765 -28.0663 96° East 562 647 33,000  Level FlightAware Transoceanic
04:09AM 49.8588 -27.8253 97° East 562 647 33,000  Level FlightAware Transoceanic
04:10AM 49.8406 -27.5845 97° East 562 647 33,000  Level FlightAware Transoceanic
04:11AM 49.8220 -27.3439 97° East 562 647 33,000  Level FlightAware Transoceanic
04:12AM 49.8028 -27.1034 97° East 562 647 33,000  Level FlightAware Transoceanic
04:13AM 49.7831 -26.8632 97° East 562 647 33,000  Level FlightAware Transoceanic
04:14AM 49.7629 -26.6232 98° East 562 647 33,000  Level FlightAware Transoceanic
04:15AM 49.7422 -26.3833 98° East 562 647 33,000  Level FlightAware Transoceanic
04:16AM 49.7211 -26.1437 98° East 562 647 33,000  Level FlightAware Transoceanic
04:17AM 49.6994 -25.9043 98° East 562 647 33,000  Level FlightAware Transoceanic
04:18AM 49.6772 -25.6651 98° East 562 647 33,000  Level FlightAware Transoceanic
04:19AM 49.6546 -25.4261 98° East 562 647 33,000  Level FlightAware Transoceanic
04:20AM 49.6315 -25.1873 99° East 562 647 33,000  Level FlightAware Transoceanic
04:21AM 49.6078 -24.9488 99° East 562 647 33,000  Level FlightAware Transoceanic
04:22AM 49.5837 -24.7105 99° East 562 647 33,000  Level FlightAware Transoceanic
04:23AM 49.5591 -24.4724 99° East 562 647 33,000  Level FlightAware Transoceanic
04:24AM 49.5340 -24.2346 99° East 562 647 33,000  Level FlightAware Transoceanic
04:25AM 49.5084 -23.9970 100° East 562 647 33,000  Level FlightAware Transoceanic
04:26AM 49.4824 -23.7597 100° East 562 647 33,000  Level FlightAware Transoceanic
04:27AM 49.4558 -23.5226 100° East 562 647 33,000  Level FlightAware Transoceanic
04:28AM 49.4288 -23.2858 100° East 562 647 33,000  Level FlightAware Transoceanic
04:29AM 49.4012 -23.0493 100° East 562 647 33,000  Level FlightAware Transoceanic
04:30AM 49.3732 -22.8130 100° East 562 647 33,000  Level FlightAware Transoceanic
04:31AM 49.3448 -22.5770 101° East 562 647 33,000  Level FlightAware Transoceanic
04:32AM 49.3158 -22.3413 101° East 562 647 33,000  Level FlightAware Transoceanic
04:33AM 49.2864 -22.1058 101° East 562 647 33,000  Level FlightAware Transoceanic
04:34AM 49.2564 -21.8707 101° East 562 647 33,000  Level FlightAware Transoceanic
04:35AM 49.2260 -21.6358 101° East 562 647 33,000  Level FlightAware Transoceanic
04:36AM 49.1952 -21.4012 101° East 562 647 33,000  Level FlightAware Transoceanic
04:37AM 49.1638 -21.1669 102° East 562 647 33,000  Level FlightAware Transoceanic
04:38AM 49.1320 -20.9329 102° East 562 647 33,000  Level FlightAware Transoceanic
04:39AM 49.0997 -20.6992 102° East 562 647 33,000  Level FlightAware Transoceanic
04:40AM 49.0669 -20.4658 102° East 562 647 33,000  Level FlightAware Transoceanic
04:41AM 49.0337 -20.2328 102° East 562 647 33,000  Level FlightAware Transoceanic
04:42AM 49.0024 -20.0167 102° East  Level FlightAware Approximate
04:43AM 48.9708 -19.8009 102° East  Level FlightAware Approximate
04:44AM 49.0095 -19.8136 85° East  Level FlightAware Approximate
04:45AM 49.0203 -19.5930 86° East  Level FlightAware Approximate
04:46AM 49.0308 -19.3719 86° East  Level FlightAware Approximate
04:47AM 49.0408 -19.1507 86° East  Level FlightAware Approximate
04:48AM 49.0504 -18.9294 86° East  Level FlightAware Approximate
04:49AM 49.0596 -18.7080 86° East  Level FlightAware Approximate
04:50AM 49.0683 -18.4866 86° East  Level FlightAware Approximate
04:51AM 49.0766 -18.2650 87° East  Level FlightAware Approximate
04:52AM 49.0845 -18.0434 87° East  Level FlightAware Approximate
04:53AM 49.0920 -17.8218 87° East  Level FlightAware Approximate
04:54AM 49.0991 -17.6000 87° East  Level FlightAware Approximate
04:55AM 49.1057 -17.3783 87° East  Level FlightAware Approximate
04:56AM 49.1119 -17.1564 87° East  Level FlightAware Approximate
04:57AM 49.1177 -16.9345 88° East  Level FlightAware Approximate
04:58AM 49.1230 -16.7126 88° East  Level FlightAware Approximate
04:59AM 49.1280 -16.4906 88° East  Level FlightAware Approximate
05:00AM 49.1325 -16.2685 88° East  Level FlightAware Approximate
05:01AM 49.1365 -16.0464 88° East  Level FlightAware Approximate
05:02AM 49.1402 -15.8243 88° East  Level FlightAware Approximate
05:03AM 49.1434 -15.6022 89° East  Level FlightAware Approximate
05:04AM 49.1462 -15.3800 89° East  Level FlightAware Approximate
05:05AM 49.1486 -15.1578 89° East  Level FlightAware Approximate
05:06AM 49.1506 -14.9356 89° East  Level FlightAware Approximate
05:07AM 49.1522 -14.7134 89° East  Level FlightAware Approximate
05:08AM 49.1534 -14.4911 89° East  Level FlightAware Approximate
05:09AM 49.1542 -14.2689 90° East  Level FlightAware Approximate
05:10AM 49.1545 -14.0470 90° East  Level FlightAware Approximate
05:11AM 49.1544 -13.8252 90° East  Level FlightAware Approximate
05:12AM 49.1539 -13.6033 90° East  Level FlightAware Approximate
05:13AM 49.1530 -13.3814 90° East  Level FlightAware Approximate
05:14AM 49.1516 -13.1596 90° East  Level FlightAware Approximate
05:15AM 49.1499 -12.9378 91° East  Level FlightAware Approximate
05:16AM 49.1477 -12.7159 91° East  Level FlightAware Approximate
05:17AM 49.1450 -12.4942 91° East  Level FlightAware Approximate
05:18AM 49.1420 -12.2724 91° East  Level FlightAware Approximate
05:19AM 49.1385 -12.0506 91° East  Level FlightAware Approximate
05:20AM 49.1346 -11.8289 91° East  Level FlightAware Approximate
05:21AM 49.1303 -11.6073 92° East  Level FlightAware Approximate
05:22AM 49.1255 -11.3856 92° East  Level FlightAware Approximate
05:23AM 49.1204 -11.1641 92° East  Level FlightAware Approximate
05:24AM 49.1148 -10.9425 92° East  Level FlightAware Approximate
05:25AM 49.1087 -10.7210 92° East  Level FlightAware Approximate
05:26AM 49.1023 -10.4996 92° East  Level FlightAware Approximate
05:27AM 49.0954 -10.2782 93° East  Level FlightAware Approximate
05:28AM 49.0882 -10.0569 93° East  Level FlightAware Approximate
05:29AM 49.0804 -9.8357 93° East  Level FlightAware Approximate
05:29AM 48.7250 -9.1900 93° East 35,100  Level FlightAware
05:29AM 48.7140 -9.0500 97° East 560 644 35,100  Level FlightAware
05:30AM 48.7030 -8.9140 97° East 560 644 35,100 -180 Level FlightAware
05:30AM 48.7427 -8.7251 97° East 500 575 35,000 -240 Descending FlightAware UK
05:31AM 48.7325 -8.6075 97° East 498 573 35,000 120 Level FlightAware UK
05:31AM 48.6930 -8.7790 97° East 560 644 35,100 120 Climbing FlightAware
05:31AM 48.6820 -8.6430 97° East 561 646 35,100  Level FlightAware
05:32AM 48.6710 -8.5080 97° East 562 647 35,100  Level FlightAware
05:32AM 48.6610 -8.3680 96° East 557 641 35,100  Level FlightAware
05:33AM 48.6420 -8.2360 102° East 553 636 35,100  Level FlightAware
05:34AM 48.6230 -8.1130 102° East 551 634 35,100 -180 Level FlightAware
05:34AM 48.6550 -7.9133 102° East 500 575 35,000 -240 Descending FlightAware UK
05:34AM 48.6361 -7.8034 102° East 498 573 35,000 60 Level FlightAware UK
05:34AM 48.5840 -7.8900 102° East 553 636 35,100  Climbing FlightAware
05:35AM 48.5936 -7.5789 102° East 498 573 35,000  Descending FlightAware UK
05:35AM 48.5630 -7.7760 102° East 553 636 35,100 180 Climbing FlightAware
05:36AM 48.5400 -7.6560 106° East 551 634 35,100  Level FlightAware
05:36AM 48.5100 -7.4990 106° East 551 634 35,100  Level FlightAware
05:37AM 48.4800 -7.3490 107° East 553 636 35,100 -120 Level FlightAware
05:38AM 48.4813 -7.0252 107° East 502 578 35,000  Descending FlightAware UK
05:38AM 48.4520 -7.2090 107° East 552 635 35,100  Climbing FlightAware
05:38AM 48.4579 -6.9158 107° East 502 578 35,000  Descending FlightAware UK
05:38AM 48.4270 -7.0900 107° East 551 634 35,100 120 Climbing FlightAware
05:39AM 48.4000 -6.9600 107° East 551 634 35,100  Level FlightAware
05:39AM 48.3730 -6.8310 107° East 549 632 35,100  Level FlightAware
05:40AM 48.3460 -6.7060 108° East 549 632 35,100  Level FlightAware
05:40AM 48.3160 -6.5670 108° East 549 632 35,100  Level FlightAware
05:41AM 48.2900 -6.4470 108° East 548 631 35,100 -180 Level FlightAware
05:41AM 48.3138 -6.2635 108° East 500 575 35,000 -240 Descending FlightAware UK
05:42AM 48.2893 -6.1555 108° East 500 575 35,000 180 Level FlightAware UK
05:42AM 48.2650 -6.3290 108° East 548 631 35,100 120 Climbing FlightAware
05:42AM 48.2360 -6.2000 109° East 549 632 35,100  Level FlightAware
05:43AM 48.2080 -6.0710 108° East 549 632 35,100  Level FlightAware
05:43AM 48.1790 -5.9380 108° East 549 632 35,100  Level FlightAware
05:44AM 48.1520 -5.8150 108° East 549 632 35,100  Level FlightAware
05:45AM 48.1230 -5.6860 109° East 550 633 35,100  Level FlightAware
05:45AM 48.0970 -5.5690 108° East 550 633 35,100  Level FlightAware
05:46AM 48.0690 -5.4430 108° East 550 633 35,100  Level FlightAware
05:46AM 48.0390 -5.3110 109° East 551 634 35,100  Level FlightAware
05:47AM 48.0110 -5.1890 109° East 551 634 35,100  Level FlightAware
05:47AM 47.9790 -5.0510 109° East 551 634 35,100  Level FlightAware
05:48AM 47.9530 -4.9360 109° East 550 633 35,100  Level FlightAware
05:49AM 47.9240 -4.8130 109° East 550 633 35,100  Level FlightAware
05:49AM 47.8930 -4.6810 109° East 550 633 35,100  Level FlightAware
05:50AM 47.8630 -4.5510 109° East 550 633 35,100  Level FlightAware
05:50AM 47.8370 -4.4390 109° East 550 633 35,100  Level FlightAware
05:51AM 47.8040 -4.3010 110° East 550 633 35,100  Level FlightAware
05:51AM 47.7780 -4.1930 110° East 551 634 35,100  Level FlightAware
05:52AM 47.7460 -4.0600 110° East 551 634 35,100  Level FlightAware
05:53AM 47.7160 -3.9330 109° East 552 635 35,100  Level FlightAware
05:53AM 47.6870 -3.8150 110° East 553 636 35,100  Level FlightAware
05:54AM 47.6560 -3.6860 110° East 552 635 35,100  Level FlightAware
05:54AM 47.6250 -3.5590 110° East 552 635 35,100  Level FlightAware
05:55AM 47.5930 -3.4320 110° East 551 634 35,100  Level FlightAware
05:56AM 47.5650 -3.3160 110° East 552 635 35,100  Level FlightAware
05:56AM 47.5330 -3.1890 110° East 551 634 35,100  Level FlightAware
05:57AM 47.5000 -3.0590 111° Southeast 551 634 35,100  Level FlightAware
05:57AM 47.4720 -2.9470 110° East 551 634 35,100  Level FlightAware
05:58AM 47.4390 -2.8160 110° East 550 633 35,100  Level FlightAware
05:59AM 47.4080 -2.6970 111° Southeast 550 633 35,100  Level FlightAware
05:59AM 47.3760 -2.5680 110° East 550 633 35,100  Level FlightAware
06:00AM 47.3430 -2.4480 112° Southeast 550 633 35,100  Level FlightAware
06:00AM 47.2990 -2.3450 122° Southeast 550 633 35,100  Level FlightAware
06:01AM 47.2520 -2.2340 122° Southeast 548 631 35,100  Level FlightAware
06:01AM 47.2070 -2.1250 121° Southeast 549 632 35,100  Level FlightAware
06:02AM 47.1670 -2.0100 117° Southeast 549 632 35,100  Level FlightAware
06:03AM 47.1260 -1.8910 117° Southeast 548 631 35,100  Level FlightAware
06:03AM 47.0840 -1.7690 117° Southeast 546 628 35,100  Level FlightAware
06:04AM 47.0440 -1.6530 117° Southeast 543 625 35,100  Level FlightAware
06:04AM 47.0040 -1.5410 118° Southeast 542 624 35,100  Level FlightAware
06:05AM 46.9670 -1.4330 117° Southeast 542 624 35,100  Level FlightAware
06:06AM 46.9270 -1.3090 115° Southeast 541 623 35,100  Level FlightAware
06:06AM 46.8900 -1.1880 114° Southeast 541 623 35,100  Level FlightAware
06:07AM 46.8580 -1.0810 114° Southeast 542 624 35,100  Level FlightAware
06:07AM 46.8180 -0.9560 115° Southeast 542 624 35,100  Level FlightAware
06:08AM 46.7860 -0.8530 114° Southeast 543 625 35,100  Level FlightAware
06:08AM 46.7440 -0.7210 115° Southeast 543 625 35,100  Level FlightAware
06:09AM 46.7140 -0.6240 114° Southeast 545 627 35,100  Level FlightAware
06:10AM 46.6810 -0.5180 114° Southeast 544 626 35,100  Level FlightAware
06:10AM 46.6400 -0.3900 115° Southeast 544 626 35,100  Level FlightAware
06:11AM 46.5980 -0.2560 114° Southeast 543 625 35,100  Level FlightAware
06:11AM 46.5670 -0.1600 115° Southeast 544 626 35,100  Level FlightAware
06:12AM 46.5310 -0.0470 115° Southeast 543 625 35,100  Level FlightAware
06:12AM 46.4930 0.0700 115° Southeast 543 625 35,100  Level FlightAware
06:13AM 46.4580 0.1810 115° Southeast 544 626 35,100  Level FlightAware
06:14AM 46.4190 0.3010 115° Southeast 544 626 35,100  Level FlightAware
06:14AM 46.3750 0.4360 115° Southeast 543 625 35,100  Level FlightAware
06:15AM 46.3420 0.5350 116° Southeast 544 626 35,100  Level FlightAware
06:15AM 46.3070 0.6420 115° Southeast 544 626 35,100  Level FlightAware
06:16AM 46.2680 0.7590 116° Southeast 545 627 35,100  Level FlightAware
06:17AM 46.2180 0.9090 116° Southeast 546 628 35,100  Level FlightAware
06:17AM 46.1860 1.0300 111° Southeast 541 623 35,100  Level FlightAware
06:18AM 46.1520 1.1460 113° Southeast 543 625 35,100  Level FlightAware
06:19AM 46.1020 1.3030 115° Southeast 538 619 35,100  Level FlightAware
06:19AM 46.0870 1.4250 100° East 530 610 35,100  Level FlightAware
06:20AM 46.0800 1.5480 95° East 527 606 35,100  Level FlightAware
06:20AM 46.0740 1.6620 94° East 527 606 35,100  Level FlightAware
06:21AM 46.0650 1.8030 95° East 526 605 35,100  Level FlightAware
06:22AM 46.0570 1.9150 96° East 526 605 35,100  Level FlightAware
06:22AM 46.0490 2.0340 95° East 526 605 35,100  Level FlightAware
06:23AM 46.0410 2.1640 95° East 525 604 35,100  Level FlightAware
06:23AM 46.0330 2.2780 96° East 525 604 35,100  Level FlightAware
06:24AM 46.0240 2.4070 96° East 524 603 35,100  Level FlightAware
06:25AM 46.0150 2.5290 96° East 523 602 35,100  Level FlightAware
06:25AM 46.0040 2.6230 100° East 534 615 35,100  Level FlightAware
06:25AM 45.9710 2.7140 118° Southeast 552 635 35,100  Level FlightAware
06:26AM 45.9040 2.8070 136° Southeast 561 646 35,100  Level FlightAware
06:27AM 45.8460 2.8810 138° Southeast 561 646 35,100  Level FlightAware
06:27AM 45.7720 2.9720 139° Southeast 560 644 35,100  Level FlightAware
06:28AM 45.6980 3.0650 139° Southeast 560 644 35,100  Level FlightAware
06:28AM 45.6370 3.1420 139° Southeast 559 643 35,100  Level FlightAware
06:29AM 45.5680 3.2280 139° Southeast 559 643 35,100  Level FlightAware
06:30AM 45.4970 3.3180 138° Southeast 559 643 35,100  Level FlightAware
06:30AM 45.4360 3.3930 139° Southeast 560 644 35,100  Level FlightAware
06:31AM 45.3760 3.4940 130° Southeast 551 634 35,100  Level FlightAware
06:31AM 45.3200 3.6010 127° Southeast 548 631 35,100  Level FlightAware
06:32AM 45.2680 3.7070 125° Southeast 546 628 35,100  Level FlightAware
06:32AM 45.2180 3.8130 124° Southeast 545 627 35,100  Level FlightAware
06:33AM 45.1720 3.9070 125° Southeast 545 627 35,100  Level FlightAware
06:34AM 45.1170 4.0210 124° Southeast 545 627 35,100  Level FlightAware
06:34AM 45.0640 4.1270 125° Southeast 545 627 35,100  Level FlightAware
06:35AM 45.0180 4.2200 125° Southeast 544 626 35,100  Level FlightAware
06:35AM 44.9650 4.3260 125° Southeast 543 625 35,100  Level FlightAware
06:36AM 44.9150 4.4280 125° Southeast 542 624 35,100  Level FlightAware
06:37AM 44.8690 4.5200 125° Southeast 540 621 35,100  Level FlightAware
06:37AM 44.8160 4.6260 125° Southeast 540 621 35,100  Level FlightAware
06:38AM 44.7640 4.7290 125° Southeast 540 621 35,100  Level FlightAware
06:38AM 44.7140 4.8300 125° Southeast 540 621 35,100  Level FlightAware
06:39AM 44.6610 4.9330 126° Southeast 539 620 35,100  Level FlightAware
06:39AM 44.6140 5.0270 125° Southeast 539 620 35,100  Level FlightAware
06:40AM 44.5650 5.1230 126° Southeast 538 619 35,100  Level FlightAware
06:41AM 44.5140 5.2230 126° Southeast 537 618 35,100  Level FlightAware
06:41AM 44.4620 5.3260 125° Southeast 535 616 35,100  Level FlightAware
06:42AM 44.4150 5.4190 125° Southeast 533 613 35,100  Level FlightAware
06:42AM 44.3650 5.5160 126° Southeast 531 611 35,100  Level FlightAware
06:43AM 44.3150 5.6200 124° Southeast 528 608 35,100  Level FlightAware
06:44AM 44.2610 5.7310 124° Southeast 524 603 35,100  Level FlightAware
06:44AM 44.2040 5.8470 124° Southeast 521 600 35,100  Level FlightAware
06:45AM 44.1540 5.9490 124° Southeast 519 597 35,100  Level FlightAware
06:45AM 44.1130 6.0340 124° Southeast 517 595 35,100  Level FlightAware
06:46AM 44.0610 6.1380 125° Southeast 515 593 35,100  Level FlightAware
06:47AM 44.0130 6.2360 124° Southeast 514 592 35,100  Level FlightAware
06:47AM 43.9670 6.3280 125° Southeast 513 590 35,100  Level FlightAware
06:48AM 43.9170 6.4280 125° Southeast 512 589 35,100  Level FlightAware
06:48AM 43.8780 6.5070 124° Southeast 510 587 35,100  Level FlightAware
06:49AM 43.8240 6.6160 124° Southeast 508 585 35,100  Level FlightAware
06:50AM 43.7740 6.7150 125° Southeast 507 583 35,100  Level FlightAware
06:50AM 43.7290 6.8030 125° Southeast 505 581 35,100  Level FlightAware
06:51AM 43.6850 6.9030 121° Southeast 504 580 35,100  Level FlightAware
06:51AM 43.6530 6.9790 120° Southeast 504 580 35,100  Level FlightAware
06:52AM 43.6110 7.0750 121° Southeast 505 581 35,100  Level FlightAware
06:52AM 43.5720 7.1670 120° Southeast 506 582 35,100  Level FlightAware
06:53AM 43.5350 7.2520 121° Southeast 506 582 35,100  Level FlightAware
06:54AM 43.4790 7.3820 121° Southeast 505 581 35,100  Level FlightAware
06:54AM 43.4340 7.4840 121° Southeast 506 582 35,100  Level FlightAware
06:55AM 43.3940 7.5750 121° Southeast 507 583 35,100  Level FlightAware
06:55AM 43.3490 7.6760 121° Southeast 507 583 35,100  Level FlightAware
06:56AM 43.3060 7.7730 121° Southeast 508 585 35,100  Level FlightAware
06:57AM 43.2680 7.8570 122° Southeast 507 583 35,100  Level FlightAware
06:57AM 43.2230 7.9580 121° Southeast 508 585 35,100  Level FlightAware
06:58AM 43.1780 8.0600 121° Southeast 509 586 35,100  Level FlightAware
06:58AM 43.1350 8.1550 122° Southeast 509 586 35,100  Level FlightAware
06:59AM 43.0920 8.2510 121° Southeast 510 587 35,100  Level FlightAware
07:00AM 43.0510 8.3420 122° Southeast 511 588 35,100  Level FlightAware
07:00AM 43.0080 8.4390 121° Southeast 512 589 35,100  Level FlightAware
07:01AM 42.9630 8.5370 122° Southeast 513 590 35,100  Level FlightAware
07:01AM 42.9190 8.6360 121° Southeast 513 590 35,100  Level FlightAware
07:02AM 42.8730 8.7350 122° Southeast 512 589 35,100  Level FlightAware
07:02AM 42.8280 8.8350 122° Southeast 512 589 35,100  Level FlightAware
07:03AM 42.7870 8.9220 123° Southeast 511 588 35,100  Level FlightAware
07:04AM 42.7440 9.0170 122° Southeast 512 589 35,100  Level FlightAware
07:04AM 42.6960 9.1220 122° Southeast 510 587 35,100  Level FlightAware
07:05AM 42.6570 9.2050 123° Southeast 511 588 35,100  Level FlightAware
07:05AM 42.6160 9.3000 120° Southeast 515 593 35,100  Level FlightAware
07:06AM 42.5820 9.4200 111° Southeast 517 595 35,100  Level FlightAware
07:07AM 42.5490 9.5360 111° Southeast 516 594 35,100  Level FlightAware
07:07AM 42.5190 9.6470 110° East 517 595 35,100  Level FlightAware
07:08AM 42.4940 9.7450 109° East 518 596 35,100  Level FlightAware
07:08AM 42.4650 9.8570 109° East 517 595 35,100  Level FlightAware
07:09AM 42.4360 9.9670 110° East 518 596 35,100  Level FlightAware
07:10AM 42.4100 10.0670 109° East 518 596 35,100  Level FlightAware
07:10AM 42.3810 10.1760 110° East 518 596 35,100  Level FlightAware
07:11AM 42.3510 10.2890 110° East 517 595 35,100  Level FlightAware
07:11AM 42.3260 10.3860 109° East 516 594 35,100  Level FlightAware
07:12AM 42.2960 10.4970 110° East 516 594 35,100  Level FlightAware
07:12AM 42.2680 10.6040 109° East 515 593 35,100  Level FlightAware
07:13AM 42.2370 10.7160 110° East 516 594 35,100  Level FlightAware
07:14AM 42.2120 10.8120 109° East 516 594 35,100  Level FlightAware
07:14AM 42.1800 10.9260 111° Southeast 516 594 35,100  Level FlightAware
07:15AM 42.1530 11.0260 110° East 516 594 35,100  Level FlightAware
07:15AM 42.1230 11.1360 110° East 515 593 35,100  Level FlightAware
07:16AM 42.0870 11.2270 118° Southeast 510 587 35,100  Level FlightAware
07:17AM 42.0320 11.3170 129° Southeast 505 581 35,100 240 Level FlightAware
07:17AM 41.9760 11.3930 135° Southeast 506 582 35,400 900 Climbing FlightAware
07:18AM 41.9190 11.4690 135° Southeast 504 580 36,200 1,320 Climbing FlightAware
07:18AM 41.8540 11.5540 136° Southeast 504 580 37,000 720 Climbing FlightAware
07:19AM 41.8040 11.6250 133° Southeast 505 581 37,100 60 Climbing FlightAware
07:19AM 41.7480 11.7080 132° Southeast 504 580 37,100  Level FlightAware
07:20AM 41.6910 11.7930 132° Southeast 504 580 37,100  Level FlightAware
07:21AM 41.6410 11.8650 133° Southeast 504 580 37,100  Level FlightAware
07:21AM 41.5850 11.9480 132° Southeast 506 582 37,100  Level FlightAware
07:22AM 41.5270 12.0330 132° Southeast 507 583 37,100  Level FlightAware
07:22AM 41.4700 12.1160 132° Southeast 509 586 37,100  Level FlightAware
07:23AM 41.4180 12.1900 133° Southeast 511 588 37,100  Level FlightAware
07:24AM 41.3610 12.2720 133° Southeast 513 590 37,100  Level FlightAware
07:24AM 41.3040 12.3550 132° Southeast 515 593 37,100  Level FlightAware
07:25AM 41.2480 12.4350 133° Southeast 518 596 37,100  Level FlightAware
07:25AM 41.1890 12.5200 133° Southeast 520 598 37,100  Level FlightAware
07:26AM 41.1330 12.6000 133° Southeast 522 601 37,100  Level FlightAware
07:27AM 41.0730 12.6860 133° Southeast 523 602 37,100  Level FlightAware
07:27AM 41.0110 12.7720 134° Southeast 525 604 37,100  Level FlightAware
07:28AM 40.9620 12.8550 128° Southeast 531 611 37,100  Level FlightAware
07:28AM 40.9470 12.8950 116° Southeast 533 613 37,100  Level FlightAware
07:28AM 40.9180 13.0100 108° East 536 617 37,100  Level FlightAware
07:29AM 40.8930 13.1190 107° East 537 618 37,100  Level FlightAware
07:30AM 40.8700 13.2190 107° East 538 619 37,100  Level FlightAware
07:30AM 40.8430 13.3330 107° East 538 619 37,100  Level FlightAware
07:31AM 40.8170 13.4440 107° East 540 621 37,100  Level FlightAware
07:31AM 40.7890 13.5550 108° East 539 620 37,100  Level FlightAware
07:32AM 40.7450 13.6600 119° Southeast 537 618 37,100  Level FlightAware
07:33AM 40.7050 13.7480 121° Southeast 537 618 37,100  Level FlightAware
07:33AM 40.6540 13.8530 123° Southeast 537 618 37,100  Level FlightAware
07:34AM 40.6040 13.9540 123° Southeast 537 618 37,100  Level FlightAware
07:34AM 40.5650 14.0330 123° Southeast 536 617 37,100  Level FlightAware
07:35AM 40.5150 14.1350 123° Southeast 536 617 37,100  Level FlightAware
07:36AM 40.4600 14.2470 123° Southeast 535 616 37,100  Level FlightAware
07:36AM 40.4100 14.3470 123° Southeast 535 616 37,100  Level FlightAware
07:37AM 40.3600 14.4490 123° Southeast 535 616 37,100  Level FlightAware
07:37AM 40.3170 14.5360 123° Southeast 536 617 37,100  Level FlightAware
07:38AM 40.2680 14.6340 123° Southeast 536 617 37,100  Level FlightAware
07:39AM 40.2190 14.7320 123° Southeast 536 617 37,100  Level FlightAware
07:39AM 40.1760 14.8190 123° Southeast 537 618 37,100  Level FlightAware
07:40AM 40.1250 14.9200 123° Southeast 537 618 37,100  Level FlightAware
07:40AM 40.0780 15.0130 123° Southeast 536 617 37,100  Level FlightAware
07:41AM 40.0340 15.1070 121° Southeast 537 618 37,100  Level FlightAware
07:41AM 39.9950 15.2090 116° Southeast 537 618 37,100  Level FlightAware
07:42AM 39.9690 15.3180 107° East 538 619 37,100  Level FlightAware
07:43AM 39.9450 15.4320 105° East 537 618 37,100  Level FlightAware
07:43AM 39.9240 15.5310 105° East 536 617 37,100  Level FlightAware
07:44AM 39.9000 15.6430 106° East 534 615 37,100  Level FlightAware
07:44AM 39.8750 15.7590 106° East 533 613 37,100  Level FlightAware
07:45AM 39.8530 15.8600 106° East 531 611 37,100  Level FlightAware
07:46AM 39.8300 15.9670 106° East 529 609 37,100  Level FlightAware
07:46AM 39.8070 16.0740 106° East 528 608 37,100  Level FlightAware
07:47AM 39.7830 16.1810 106° East 528 608 37,100  Level FlightAware
07:47AM 39.7590 16.2920 106° East 528 608 37,100  Level FlightAware
07:48AM 39.7380 16.3880 106° East 528 608 37,100  Level FlightAware
07:48AM 39.7090 16.5060 108° East 529 609 37,100  Level FlightAware
07:49AM 39.6680 16.6060 118° Southeast 529 609 37,100  Level FlightAware
07:50AM 39.6280 16.6930 121° Southeast 529 609 37,100  Level FlightAware
07:50AM 39.5850 16.7850 121° Southeast 530 610 37,100  Level FlightAware
07:51AM 39.5370 16.8880 121° Southeast 530 610 37,100  Level FlightAware
07:51AM 39.4950 16.9770 121° Southeast 531 611 37,100  Level FlightAware
07:52AM 39.4460 17.0820 121° Southeast 530 610 37,100  Level FlightAware
07:52AM 39.4050 17.1680 122° Southeast 530 610 37,100  Level FlightAware
07:53AM 39.3590 17.2660 121° Southeast 531 611 37,100  Level FlightAware
07:54AM 39.3130 17.3610 122° Southeast 530 610 37,100  Level FlightAware
07:54AM 39.2690 17.4550 121° Southeast 530 610 37,100  Level FlightAware
07:55AM 39.2240 17.5470 122° Southeast 530 610 37,100  Level FlightAware
07:55AM 39.1760 17.6480 121° Southeast 529 609 37,100  Level FlightAware
07:56AM 39.1300 17.7450 121° Southeast 530 610 37,100  Level FlightAware
07:57AM 39.0880 17.8300 122° Southeast 530 610 37,100  Level FlightAware
07:57AM 39.0420 17.9270 121° Southeast 530 610 37,100  Level FlightAware
07:58AM 39.0030 18.0080 122° Southeast 530 610 37,100  Level FlightAware
07:58AM 38.9510 18.1150 122° Southeast 530 610 37,100  Level FlightAware
07:59AM 38.9050 18.2100 122° Southeast 531 611 37,100  Level FlightAware
08:00AM 38.8570 18.3080 122° Southeast 531 611 37,100  Level FlightAware
08:00AM 38.8160 18.3920 122° Southeast 531 611 37,100  Level FlightAware
08:01AM 38.7680 18.4890 122° Southeast 531 611 37,100  Level FlightAware
08:01AM 38.7220 18.5830 122° Southeast 532 612 37,100  Level FlightAware
08:02AM 38.6790 18.6680 123° Southeast 533 613 37,100  Level FlightAware
08:03AM 38.6340 18.7600 122° Southeast 534 615 37,100  Level FlightAware
08:03AM 38.5730 18.8880 121° Southeast 535 616 37,100  Level FlightAware
08:04AM 38.5340 18.9710 121° Southeast 535 616 37,100  Level FlightAware
08:05AM 38.5080 19.1340 101° East 535 616 37,100  Level FlightAware
08:06AM 38.4600 19.3200 108° East 537 618 37,100  Level FlightAware
08:06AM 38.4330 19.4260 108° East 537 618 37,100  Level FlightAware
08:07AM 38.3990 19.5550 109° East 537 618 37,100  Level FlightAware
08:08AM 38.3660 19.6770 109° East 537 618 37,100  Level FlightAware
08:08AM 38.3390 19.7810 108° East 537 618 37,100  Level FlightAware
08:09AM 38.3130 19.8810 108° East 537 618 37,100  Level FlightAware
08:09AM 38.2840 19.9840 110° East 537 618 37,100  Level FlightAware
08:10AM 38.2390 20.1520 109° East 535 616 37,100  Level FlightAware
08:11AM 38.2100 20.2630 108° East 535 616 37,100  Level FlightAware
08:12AM 38.1870 20.3550 108° East 535 616 37,100  Level FlightAware
08:12AM 38.1630 20.4460 109° East 535 616 37,100  Level FlightAware
08:13AM 38.1400 20.5380 108° East 535 616 37,100  Level FlightAware
08:13AM 38.0580 20.6980 123° Southeast 537 618 37,100  Level FlightAware
08:14AM 38.0080 20.8350 115° Southeast 534 615 37,100  Level FlightAware
08:15AM 37.9620 20.9530 116° Southeast 537 618 37,100  Level FlightAware
08:15AM 37.9230 21.0550 116° Southeast 538 619 37,100  Level FlightAware
08:16AM 37.8750 21.1820 116° Southeast 538 619 37,100  Level FlightAware
08:17AM 37.8400 21.2750 115° Southeast 538 619 37,100  Level FlightAware
08:17AM 37.7990 21.3830 116° Southeast 539 620 37,100  Level FlightAware
08:18AM 37.7540 21.5020 116° Southeast 539 620 37,100  Level FlightAware
08:19AM 37.7030 21.6310 117° Southeast 539 620 37,100  Level FlightAware
08:19AM 37.6600 21.7430 116° Southeast 538 619 37,100  Level FlightAware
08:20AM 37.6260 21.8340 115° Southeast 538 619 37,100  Level FlightAware
08:21AM 37.5770 21.9590 116° Southeast 536 617 37,100  Level FlightAware
08:21AM 37.5390 22.0550 117° Southeast 536 617 37,100  Level FlightAware
08:22AM 37.5030 22.1490 116° Southeast 536 617 37,100  Level FlightAware
08:23AM 37.4620 22.2680 113° Southeast 535 616 37,100  Level FlightAware
08:23AM 37.4240 22.3990 110° East 540 621 37,100  Level FlightAware
08:24AM 37.3960 22.4980 110° East 541 623 37,100  Level FlightAware
08:25AM 37.3610 22.6180 110° East 540 621 37,100  Level FlightAware
08:25AM 37.3290 22.7280 110° East 542 624 37,100  Level FlightAware
08:26AM 37.2940 22.8450 111° Southeast 543 625 37,100  Level FlightAware
08:26AM 37.2560 22.9590 113° Southeast 547 629 37,100  Level FlightAware
08:27AM 37.2220 23.0610 113° Southeast 550 633 37,100  Level FlightAware
08:28AM 37.1890 23.1610 112° Southeast 551 634 37,100  Level FlightAware
08:28AM 37.1540 23.2660 113° Southeast 553 636 37,100  Level FlightAware
08:29AM 37.1170 23.3750 113° Southeast 553 636 37,100  Level FlightAware
08:29AM 37.0850 23.4680 113° Southeast 553 636 37,100  Level FlightAware
08:30AM 37.0490 23.5740 113° Southeast 553 636 37,100  Level FlightAware
08:31AM 37.0130 23.6810 113° Southeast 554 638 37,100  Level FlightAware
08:31AM 36.9770 23.7880 113° Southeast 554 638 37,100  Level FlightAware
08:32AM 36.9450 23.8820 113° Southeast 554 638 37,100  Level FlightAware
08:32AM 36.9080 23.9890 113° Southeast 553 636 37,100  Level FlightAware
08:33AM 36.8730 24.0920 113° Southeast 553 636 37,100  Level FlightAware
08:33AM 36.8360 24.2000 113° Southeast 553 636 37,100  Level FlightAware
08:34AM 36.8020 24.3000 113° Southeast 554 638 37,100  Level FlightAware
08:35AM 36.7750 24.3800 113° Southeast 554 638 37,100  Level FlightAware
08:35AM 36.7370 24.4890 113° Southeast 554 638 37,100  Level FlightAware
08:36AM 36.7050 24.5800 114° Southeast 554 638 37,100  Level FlightAware
08:36AM 36.6680 24.6860 113° Southeast 554 638 37,100  Level FlightAware
08:37AM 36.6310 24.7910 114° Southeast 554 638 37,100  Level FlightAware
08:37AM 36.5930 24.8970 114° Southeast 555 639 37,100  Level FlightAware
08:38AM 36.5580 24.9960 114° Southeast 556 640 37,100  Level FlightAware
08:39AM 36.5230 25.0960 114° Southeast 556 640 37,100  Level FlightAware
08:39AM 36.4850 25.2020 114° Southeast 555 639 37,100  Level FlightAware
08:40AM 36.4500 25.2980 114° Southeast 554 638 37,100  Level FlightAware
08:40AM 36.4110 25.4090 114° Southeast 552 635 37,100  Level FlightAware
08:41AM 36.3800 25.4940 114° Southeast 551 634 37,100  Level FlightAware
08:42AM 36.3380 25.6100 114° Southeast 548 631 37,100  Level FlightAware
08:42AM 36.3000 25.7140 114° Southeast 548 631 37,100  Level FlightAware
08:43AM 36.2670 25.8050 114° Southeast 547 629 37,100  Level FlightAware
08:43AM 36.2290 25.9090 114° Southeast 547 629 37,100  Level FlightAware
08:44AM 36.1940 26.0040 115° Southeast 547 629 37,100  Level FlightAware
08:44AM 36.1560 26.1090 114° Southeast 549 632 37,100  Level FlightAware
08:45AM 36.1220 26.1990 115° Southeast 550 633 37,100  Level FlightAware
08:46AM 36.0810 26.3090 115° Southeast 552 635 37,100  Level FlightAware
08:46AM 36.0440 26.4100 114° Southeast 553 636 37,100  Level FlightAware
08:47AM 36.0050 26.5140 115° Southeast 552 635 37,100  Level FlightAware
08:47AM 35.9700 26.6060 115° Southeast 552 635 37,100  Level FlightAware
08:48AM 35.9210 26.7370 115° Southeast 547 629 37,100  Level FlightAware
08:49AM 35.8800 26.8440 115° Southeast 546 628 37,100  Level FlightAware
08:49AM 35.8440 26.9420 114° Southeast 546 628 37,100  Level FlightAware
08:50AM 35.7980 27.0580 116° Southeast 548 631 37,100  Level FlightAware
08:51AM 35.7650 27.1430 116° Southeast 543 625 37,100  Level FlightAware
08:51AM 35.7320 27.2340 114° Southeast 543 625 37,100  Level FlightAware
08:52AM 35.7000 27.3230 114° Southeast 543 625 37,100  Level FlightAware
08:52AM 35.6680 27.4090 115° Southeast 543 625 37,100  Level FlightAware
08:53AM 35.6370 27.4960 114° Southeast 543 625 37,100  Level FlightAware
08:54AM 35.6060 27.5820 114° Southeast 543 625 37,100  Level FlightAware
08:54AM 35.5750 27.6680 114° Southeast 543 625 37,100  Level FlightAware
08:55AM 35.4800 27.8730 120° Southeast 540 621 37,100  Level FlightAware
08:55AM 35.4410 27.9730 116° Southeast 540 621 37,100  Level FlightAware
08:56AM 35.3980 28.0820 116° Southeast 542 624 37,100  Level FlightAware
08:57AM 35.3660 28.1630 116° Southeast 541 623 37,100  Level FlightAware
08:57AM 35.3200 28.2770 116° Southeast 541 623 37,100  Level FlightAware
08:58AM 35.2850 28.3640 116° Southeast 541 623 37,100  Level FlightAware
08:58AM 35.2450 28.4630 116° Southeast 541 623 37,100  Level FlightAware
08:59AM 35.2010 28.5730 116° Southeast 541 623 37,100  Level FlightAware
09:00AM 35.1660 28.6620 116° Southeast 541 623 37,100  Level FlightAware
09:01AM 35.1110 28.7990 116° Southeast 535 616 37,100  Level FlightAware
09:01AM 35.0650 28.9090 117° Southeast 534 615 37,100  Level FlightAware
09:02AM 35.0240 29.0090 117° Southeast 534 615 37,100  Level FlightAware
09:02AM 34.9900 29.0970 115° Southeast 534 615 37,100  Level FlightAware
09:03AM 34.9340 29.2310 117° Southeast 537 618 37,100  Level FlightAware
09:04AM 34.8800 29.3620 117° Southeast 538 619 37,100  Level FlightAware
09:05AM 34.8410 29.4570 117° Southeast 538 619 37,100  Level FlightAware
09:05AM 34.7970 29.5630 117° Southeast 538 619 37,100  Level FlightAware
09:06AM 34.7630 29.6450 117° Southeast 536 617 37,100  Level FlightAware
09:06AM 34.7190 29.7500 117° Southeast 536 617 37,100  Level FlightAware
09:07AM 34.6830 29.8360 117° Southeast 535 616 37,100  Level FlightAware
09:08AM 34.6490 29.9180 117° Southeast 535 616 37,100  Level FlightAware
09:08AM 34.6130 30.0020 117° Southeast 535 616 37,100  Level FlightAware
09:09AM 34.5500 30.1240 122° Southeast 519 597 37,100  Level FlightAware
09:09AM 34.5070 30.2140 120° Southeast 509 586 37,100  Level FlightAware
09:10AM 34.4630 30.3030 121° Southeast 509 586 37,100  Level FlightAware
09:11AM 34.4200 30.3890 121° Southeast 508 585 37,100  Level FlightAware
09:11AM 34.3790 30.4740 120° Southeast 506 582 37,100  Level FlightAware
09:12AM 34.3350 30.5620 121° Southeast 506 582 37,100  Level FlightAware
09:12AM 34.2960 30.6430 120° Southeast 505 581 37,100  Level FlightAware
09:13AM 34.2600 30.7160 121° Southeast 505 581 37,100 -120 Level FlightAware
09:13AM 34.2100 30.8180 121° Southeast 504 580 37,000  Descending FlightAware
09:14AM 34.1680 30.9040 121° Southeast 505 581 37,100 60 Climbing FlightAware
09:15AM 34.1250 30.9910 121° Southeast 506 582 37,100  Level FlightAware
09:15AM 34.0700 31.1030 121° Southeast 506 582 37,100 -120 Level FlightAware
09:16AM 34.0220 31.2000 121° Southeast 508 585 37,000  Descending FlightAware
09:17AM 33.9870 31.2720 120° Southeast 508 585 37,100 60 Climbing FlightAware
09:17AM 33.9390 31.3700 121° Southeast 508 585 37,100  Level FlightAware
09:18AM 33.8960 31.4560 121° Southeast 507 583 37,100  Level FlightAware
09:18AM 33.8610 31.5260 121° Southeast 508 585 37,100  Level FlightAware
09:19AM 33.8180 31.6130 121° Southeast 507 583 37,100  Level FlightAware
09:20AM 33.7760 31.6970 121° Southeast 507 583 37,100  Level FlightAware
09:20AM 33.7330 31.7830 121° Southeast 506 582 37,100  Level FlightAware
09:21AM 33.6920 31.8650 121° Southeast 507 583 37,100  Level FlightAware
09:21AM 33.6500 31.9500 121° Southeast 506 582 37,100  Level FlightAware
09:22AM 33.6060 32.0380 121° Southeast 505 581 37,100  Level FlightAware
09:23AM 33.5590 32.1310 121° Southeast 504 580 37,100  Level FlightAware
09:23AM 33.5120 32.2260 121° Southeast 504 580 37,100  Level FlightAware
09:24AM 33.4760 32.2960 122° Southeast 502 578 37,100  Level FlightAware
09:24AM 33.4250 32.3980 121° Southeast 502 578 37,100  Level FlightAware
09:25AM 33.3800 32.4850 122° Southeast 503 579 37,100 -120 Level FlightAware
09:26AM 33.3350 32.5740 121° Southeast 515 593 37,000 -1,200 Descending FlightAware
09:26AM 33.2970 32.6490 121° Southeast 520 598 35,800 -1,800 Descending FlightAware
09:27AM 33.2590 32.7440 116° Southeast 516 594 35,000 -720 Descending FlightAware
09:27AM 33.2230 32.8390 114° Southeast 511 588 35,000 -1,140 Level FlightAware
09:28AM 33.1840 32.9390 115° Southeast 503 579 33,600 -1,620 Descending FlightAware
09:29AM 33.1490 33.0260 116° Southeast 494 568 33,000 -420 Descending FlightAware
09:29AM 33.0880 33.1100 131° Southeast 485 558 33,100 60 Climbing FlightAware
09:30AM 33.0390 33.1820 129° Southeast 490 564 33,100 -300 Level FlightAware
09:30AM 32.9970 33.2560 124° Southeast 487 560 32,800 -960 Descending FlightAware
09:31AM 32.9540 33.3370 122° Southeast 466 536 32,000 -1,680 Descending FlightAware
09:32AM 32.9160 33.4110 121° Southeast 459 528 30,900 -2,520 Descending FlightAware
09:32AM 32.8750 33.4900 122° Southeast 465 535 29,100 -3,000 Descending FlightAware
09:33AM 32.8360 33.5640 122° Southeast 467 537 27,400 -2,940 Descending FlightAware
09:33AM 32.7970 33.6380 122° Southeast 465 535 25,700 -3,060 Descending FlightAware
09:34AM 32.7560 33.7180 121° Southeast 460 529 23,900 -3,000 Descending FlightAware
09:34AM 32.7190 33.7890 122° Southeast 456 525 22,200 -2,880 Descending FlightAware
09:35AM 32.6860 33.8520 122° Southeast 450 518 20,800 -3,120 Descending FlightAware
09:36AM 32.6410 33.9380 122° Southeast 442 509 18,700 -3,120 Descending FlightAware
09:36AM 32.6030 34.0110 122° Southeast 437 503 16,900 -2,520 Descending FlightAware
09:37AM 32.5640 34.0860 122° Southeast 415 478 15,600 -2,100 Descending FlightAware
09:37AM 32.5480 34.1100 128° Southeast 396 456 15,200 -1,740 Descending FlightAware
09:37AM 32.5360 34.1200 145° Southeast 380 437 15,000 -1,680 Descending FlightAware
09:37AM 32.5110 34.1290 163° South 358 412 14,500 -1,500 Descending FlightAware
09:38AM 32.4830 34.1210 194° South 325 374 14,100 -1,080 Descending FlightAware
09:38AM 32.4640 34.0930 231° Southwest 300 345 13,800 -960 Descending FlightAware
09:38AM 32.4610 34.0700 261° West 291 335 13,600 -960 Descending FlightAware
09:39AM 32.4670 34.0260 279° West 277 319 13,100 -900 Descending FlightAware
09:39AM 32.4900 33.9840 303° West 265 305 12,600 -960 Descending FlightAware
09:40AM 32.5150 33.9420 305° West 273 314 12,000 -720 Descending FlightAware
09:40AM 32.5340 33.9300 332° Northwest 281 323 12,000 -660 Level FlightAware
09:41AM 32.5530 33.9290 357° North 295 339 11,700 -2,040 Descending FlightAware
09:41AM 32.5670 33.9340 17° North 307 353 11,200 -2,580 Descending FlightAware
09:41AM 32.5810 33.9460 36° Northeast 315 362 10,800 -1,920 Descending FlightAware
09:41AM 32.5980 33.9760 56° Northeast 317 365 10,200 -1,500 Descending FlightAware
09:41AM 32.6010 33.9960 80° East 314 361 10,000 -1,200 Descending FlightAware
09:42AM 32.6000 34.0100 95° East 311 358 9,800 -1,500 Descending FlightAware
09:42AM 32.5990 34.0170 100° East 306 352 9,700 -1,140 Descending FlightAware
09:42AM 32.5930 34.0340 113° Southeast 299 344 9,500 -1,200 Descending FlightAware
09:42AM 32.5790 34.0560 127° Southeast 293 337 9,100 -1,440 Descending FlightAware
09:43AM 32.5550 34.0850 134° Southeast 287 330 8,500 -1,440 Descending FlightAware
09:43AM 32.5370 34.1070 134° Southeast 284 327 8,100 -1,200 Descending FlightAware
09:43AM 32.5180 34.1290 136° Southeast 282 325 7,700 -1,200 Descending FlightAware
09:44AM 32.4920 34.1610 134° Southeast 279 321 7,100 -1,260 Descending FlightAware
09:44AM 32.4700 34.1890 133° Southeast 275 316 6,600 -1,260 Descending FlightAware
09:44AM 32.4530 34.2100 134° Southeast 275 316 6,200 -240 Descending FlightAware
09:47AM 32.2398 34.4581 132° Southeast  Level FlightAware Approximate
09:48AM 32.1523 34.5964 126° Southeast  Level FlightAware Approximate
09:49AM 32.0689 34.7362 115° Southeast  Level FlightAware Approximate
09:50AM 32.0000 34.8667 125° Southeast  Level FlightAware Approximate
09:51AM 32.0095 34.8769 125° Southeast  Level Estimated
09:52AM 32.0095 34.8769 125° Southeast  Level Estimated
09:52AM 32.1510 34.6900 125° Southeast 200 230 5,100  Level FlightAware
09:52AM 32.1380 34.7050 136° Southeast 214 246 4,900 -300 Descending FlightAware
09:53AM 32.1140 34.7330 135° Southeast 211 243 4,800 -360 Descending FlightAware
09:53AM 32.1290 34.7160 316° Northwest 211 243 4,600 -1,020 Descending FlightAware
09:53AM 32.0890 34.7610 136° Southeast 199 229 4,200 -1,320 Descending FlightAware
09:54AM 32.0700 34.8070 116° Southeast 175 201 3,100 -1,140 Descending FlightAware
09:55AM 32.0740 34.8280 77° East 174 200 2,800 -840 Descending FlightAware
09:55AM 32.0780 34.8430 73° East 173 199 2,500 -900 Descending FlightAware
09:55AM 32.0810 34.8580 77° East 171 197 2,300 -420 Descending FlightAware
09:56AM 32.0880 34.8820 71° East 169 194 2,200 -1,080 Descending FlightAware
09:56AM 32.0820 34.8630 250° West 158 182 1,700 -960 Descending FlightAware
09:56AM 32.0990 34.8610 354° North 158 182 1,700  Level FlightAware
09:59AM 32.0095 34.8769 125° Southeast  Level Estimated